sensor_id;sensor_type;location;lat;lon;timestamp;temperature;humidity
10468;DHT22;5281;48.878;9.394;2023-07-29T00:00:38;19.10;99.90
10468;DHT22;5281;48.878;9.394;2023-07-29T00:03:05;19.10;99.90
10468;DHT22;5281;48.878;9.394;2023-07-29T00:05:32;19.10;99.90
10468;DHT22;5281;48.878;9.394;2023-07-29T00:07:59;19.10;99.90
10468;DHT22;5281;48.878;9.394;2023-07-29T00:10:26;19.10;99.90
10468;DHT22;5281;48.878;9.394;2023-07-29T00:12:54;19.20;99.90
10468;DHT22;5281;48.878;9.394;2023-07-29T00:15:20;19.20;99.90
10468;DHT22;5281;48.878;9.394;2023-07-29T00:17:47;19.30;99.90
10468;DHT22;5281;48.878;9.394;2023-07-29T00:20:14;19.40;99.90
10468;DHT22;5281;48.878;9.394;2023-07-29T00:22:40;19.40;99.90
10468;DHT22;5281;48.878;9.394;2023-07-29T00:25:08;19.50;99.90
10468;DHT22;5281;48.878;9.394;2023-07-29T00:27:34;19.40;99.90
10468;DHT22;5281;48.878;9.394;2023-07-29T00:30:03;19.40;99.90
10468;DHT22;5281;48.878;9.394;2023-07-29T00:32:30;19.30;99.90
10468;DHT22;5281;48.878;9.394;2023-07-29T00:34:56;19.30;99.90
10468;DHT22;5281;48.878;9.394;2023-07-29T00:37:26;19.20;99.90
10468;DHT22;5281;48.878;9.394;2023-07-29T00:39:52;19.10;99.90
10468;DHT22;5281;48.878;9.394;2023-07-29T00:42:20;19.00;99.90
10468;DHT22;5281;48.878;9.394;2023-07-29T00:44:46;18.90;99.90
10468;DHT22;5281;48.878;9.394;2023-07-29T00:47:15;18.80;99.90
10468;DHT22;5281;48.878;9.394;2023-07-29T00:49:43;18.80;99.90
10468;DHT22;5281;48.878;9.394;2023-07-29T00:52:10;18.90;99.90
10468;DHT22;5281;48.878;9.394;2023-07-29T00:54:38;19.00;99.90
10468;DHT22;5281;48.878;9.394;2023-07-29T00:57:05;19.00;99.90
10468;DHT22;5281;48.878;9.394;2023-07-29T00:59:33;19.10;99.90
10468;DHT22;5281;48.878;9.394;2023-07-29T01:02:02;19.20;99.90
10468;DHT22;5281;48.878;9.394;2023-07-29T01:04:30;19.20;99.90
10468;DHT22;5281;48.878;9.394;2023-07-29T01:07:06;19.10;99.90
10468;DHT22;5281;48.878;9.394;2023-07-29T01:09:41;19.10;99.90
10468;DHT22;5281;48.878;9.394;2023-07-29T01:12:16;19.20;99.90
10468;DHT22;5281;48.878;9.394;2023-07-29T01:14:49;19.20;99.90
10468;DHT22;5281;48.878;9.394;2023-07-29T01:17:22;19.20;99.90
10468;DHT22;5281;48.878;9.394;2023-07-29T01:20:00;19.20;99.90
10468;DHT22;5281;48.878;9.394;2023-07-29T01:22:28;19.10;99.90
10468;DHT22;5281;48.878;9.394;2023-07-29T01:24:57;19.00;99.90
10468;DHT22;5281;48.878;9.394;2023-07-29T01:27:24;18.90;99.90
10468;DHT22;5281;48.878;9.394;2023-07-29T01:29:51;18.90;99.90
10468;DHT22;5281;48.878;9.394;2023-07-29T01:32:22;18.90;99.90
10468;DHT22;5281;48.878;9.394;2023-07-29T01:34:56;18.80;99.90
10468;DHT22;5281;48.878;9.394;2023-07-29T01:37:27;18.70;99.90
10468;DHT22;5281;48.878;9.394;2023-07-29T01:39:59;18.80;99.90
10468;DHT22;5281;48.878;9.394;2023-07-29T01:42:26;18.90;99.90
10468;DHT22;5281;48.878;9.394;2023-07-29T01:44:53;18.90;99.90
10468;DHT22;5281;48.878;9.394;2023-07-29T01:47:20;19.00;99.90
10468;DHT22;5281;48.878;9.394;2023-07-29T01:49:48;19.10;99.90
10468;DHT22;5281;48.878;9.394;2023-07-29T01:52:14;19.20;99.90
10468;DHT22;5281;48.878;9.394;2023-07-29T01:54:41;19.20;99.90
10468;DHT22;5281;48.878;9.394;2023-07-29T01:57:09;19.20;99.90
10468;DHT22;5281;48.878;9.394;2023-07-29T01:59:36;19.10;99.90
10468;DHT22;5281;48.878;9.394;2023-07-29T02:02:02;19.00;99.90
10468;DHT22;5281;48.878;9.394;2023-07-29T02:04:29;19.00;99.90
10468;DHT22;5281;48.878;9.394;2023-07-29T02:06:56;19.10;99.90
10468;DHT22;5281;48.878;9.394;2023-07-29T02:09:23;19.00;99.90
10468;DHT22;5281;48.878;9.394;2023-07-29T02:11:51;18.90;99.90
10468;DHT22;5281;48.878;9.394;2023-07-29T02:14:19;18.80;99.90
10468;DHT22;5281;48.878;9.394;2023-07-29T02:16:46;18.90;99.90
10468;DHT22;5281;48.878;9.394;2023-07-29T02:19:12;18.80;99.90
10468;DHT22;5281;48.878;9.394;2023-07-29T02:21:39;18.90;99.90
10468;DHT22;5281;48.878;9.394;2023-07-29T02:24:06;19.00;99.90
10468;DHT22;5281;48.878;9.394;2023-07-29T02:26:32;19.10;99.90
10468;DHT22;5281;48.878;9.394;2023-07-29T02:28:59;19.00;99.90
10468;DHT22;5281;48.878;9.394;2023-07-29T02:31:27;19.00;99.90
10468;DHT22;5281;48.878;9.394;2023-07-29T02:33:54;19.00;99.90
10468;DHT22;5281;48.878;9.394;2023-07-29T02:36:21;19.00;99.90
10468;DHT22;5281;48.878;9.394;2023-07-29T02:38:47;19.00;99.90
10468;DHT22;5281;48.878;9.394;2023-07-29T02:41:14;18.90;99.90
10468;DHT22;5281;48.878;9.394;2023-07-29T02:43:42;18.70;99.90
10468;DHT22;5281;48.878;9.394;2023-07-29T02:46:09;18.60;99.90
10468;DHT22;5281;48.878;9.394;2023-07-29T02:48:37;18.60;99.90
10468;DHT22;5281;48.878;9.394;2023-07-29T02:51:04;18.70;99.90
10468;DHT22;5281;48.878;9.394;2023-07-29T02:53:30;18.70;99.90
10468;DHT22;5281;48.878;9.394;2023-07-29T02:55:57;18.70;99.90
10468;DHT22;5281;48.878;9.394;2023-07-29T02:58:24;18.80;99.90
10468;DHT22;5281;48.878;9.394;2023-07-29T03:00:51;19.00;99.90
10468;DHT22;5281;48.878;9.394;2023-07-29T03:03:18;19.00;99.90
10468;DHT22;5281;48.878;9.394;2023-07-29T03:05:46;18.90;99.90
10468;DHT22;5281;48.878;9.394;2023-07-29T03:08:13;19.10;99.90
10468;DHT22;5281;48.878;9.394;2023-07-29T03:10:40;19.20;99.90
10468;DHT22;5281;48.878;9.394;2023-07-29T03:13:07;19.30;99.90
10468;DHT22;5281;48.878;9.394;2023-07-29T03:15:34;19.30;99.90
10468;DHT22;5281;48.878;9.394;2023-07-29T03:18:00;19.30;99.90
10468;DHT22;5281;48.878;9.394;2023-07-29T03:20:27;19.30;99.90
10468;DHT22;5281;48.878;9.394;2023-07-29T03:22:55;19.20;99.90
10468;DHT22;5281;48.878;9.394;2023-07-29T03:25:22;19.10;99.90
10468;DHT22;5281;48.878;9.394;2023-07-29T03:27:48;19.00;99.90
10468;DHT22;5281;48.878;9.394;2023-07-29T03:30:19;19.00;99.90
10468;DHT22;5281;48.878;9.394;2023-07-29T03:32:46;18.90;99.90
10468;DHT22;5281;48.878;9.394;2023-07-29T03:35:13;18.90;99.90
10468;DHT22;5281;48.878;9.394;2023-07-29T03:37:39;18.70;99.90
10468;DHT22;5281;48.878;9.394;2023-07-29T03:40:08;18.60;99.90
10468;DHT22;5281;48.878;9.394;2023-07-29T03:42:35;18.50;99.90
10468;DHT22;5281;48.878;9.394;2023-07-29T03:45:02;18.50;99.90
10468;DHT22;5281;48.878;9.394;2023-07-29T03:47:29;18.50;99.90
10468;DHT22;5281;48.878;9.394;2023-07-29T03:49:56;18.60;99.90
10468;DHT22;5281;48.878;9.394;2023-07-29T03:52:22;18.80;99.90
10468;DHT22;5281;48.878;9.394;2023-07-29T03:54:49;18.90;99.90
10468;DHT22;5281;48.878;9.394;2023-07-29T03:57:17;19.00;99.90
10468;DHT22;5281;48.878;9.394;2023-07-29T03:59:44;19.20;99.90
10468;DHT22;5281;48.878;9.394;2023-07-29T04:02:11;19.30;99.90
10468;DHT22;5281;48.878;9.394;2023-07-29T04:04:38;19.50;99.90
10468;DHT22;5281;48.878;9.394;2023-07-29T04:07:05;19.50;99.90
10468;DHT22;5281;48.878;9.394;2023-07-29T04:09:32;19.50;99.90
10468;DHT22;5281;48.878;9.394;2023-07-29T04:11:59;19.60;99.90
10468;DHT22;5281;48.878;9.394;2023-07-29T04:14:27;19.80;99.90
10468;DHT22;5281;48.878;9.394;2023-07-29T04:16:53;19.80;99.90
10468;DHT22;5281;48.878;9.394;2023-07-29T04:19:20;19.90;99.90
10468;DHT22;5281;48.878;9.394;2023-07-29T04:21:47;20.00;99.90
10468;DHT22;5281;48.878;9.394;2023-07-29T04:24:16;20.00;99.90
10468;DHT22;5281;48.878;9.394;2023-07-29T04:26:43;19.90;99.90
10468;DHT22;5281;48.878;9.394;2023-07-29T04:29:10;19.70;99.90
10468;DHT22;5281;48.878;9.394;2023-07-29T04:31:38;19.60;99.90
10468;DHT22;5281;48.878;9.394;2023-07-29T04:34:05;19.50;99.90
10468;DHT22;5281;48.878;9.394;2023-07-29T04:36:32;19.40;99.90
10468;DHT22;5281;48.878;9.394;2023-07-29T04:38:58;19.30;99.90
10468;DHT22;5281;48.878;9.394;2023-07-29T04:41:25;19.40;99.90
10468;DHT22;5281;48.878;9.394;2023-07-29T04:43:52;19.20;99.90
10468;DHT22;5281;48.878;9.394;2023-07-29T04:46:18;19.10;99.90
10468;DHT22;5281;48.878;9.394;2023-07-29T04:48:46;19.10;99.90
10468;DHT22;5281;48.878;9.394;2023-07-29T04:51:13;19.10;99.90
10468;DHT22;5281;48.878;9.394;2023-07-29T04:53:40;19.10;99.90
10468;DHT22;5281;48.878;9.394;2023-07-29T04:56:06;19.10;99.90
10468;DHT22;5281;48.878;9.394;2023-07-29T04:58:33;19.00;99.90
10468;DHT22;5281;48.878;9.394;2023-07-29T05:01:00;19.00;99.90
10468;DHT22;5281;48.878;9.394;2023-07-29T05:03:28;19.10;99.90
10468;DHT22;5281;48.878;9.394;2023-07-29T05:05:57;19.10;99.90
10468;DHT22;5281;48.878;9.394;2023-07-29T05:08:25;19.10;99.90
10468;DHT22;5281;48.878;9.394;2023-07-29T05:10:52;19.10;99.90
10468;DHT22;5281;48.878;9.394;2023-07-29T05:13:19;19.20;99.90
10468;DHT22;5281;48.878;9.394;2023-07-29T05:15:47;19.30;99.90
10468;DHT22;5281;48.878;9.394;2023-07-29T05:18:14;19.40;99.90
10468;DHT22;5281;48.878;9.394;2023-07-29T05:20:40;19.40;99.90
10468;DHT22;5281;48.878;9.394;2023-07-29T05:23:08;19.40;99.90
10468;DHT22;5281;48.878;9.394;2023-07-29T05:25:35;19.40;99.90
10468;DHT22;5281;48.878;9.394;2023-07-29T05:28:02;19.50;99.90
10468;DHT22;5281;48.878;9.394;2023-07-29T05:30:29;19.40;99.90
10468;DHT22;5281;48.878;9.394;2023-07-29T05:32:57;19.30;99.90
10468;DHT22;5281;48.878;9.394;2023-07-29T05:35:24;19.40;99.90
10468;DHT22;5281;48.878;9.394;2023-07-29T05:37:50;19.60;99.90
10468;DHT22;5281;48.878;9.394;2023-07-29T05:40:19;19.80;99.90
10468;DHT22;5281;48.878;9.394;2023-07-29T05:42:46;20.00;99.90
10468;DHT22;5281;48.878;9.394;2023-07-29T05:45:13;20.30;99.90
10468;DHT22;5281;48.878;9.394;2023-07-29T05:47:40;20.50;99.90
10468;DHT22;5281;48.878;9.394;2023-07-29T05:50:07;20.70;99.90
10468;DHT22;5281;48.878;9.394;2023-07-29T05:52:34;20.80;99.90
10468;DHT22;5281;48.878;9.394;2023-07-29T05:55:01;20.90;99.90
10468;DHT22;5281;48.878;9.394;2023-07-29T05:57:29;21.10;99.90
10468;DHT22;5281;48.878;9.394;2023-07-29T05:59:56;21.30;99.90
10468;DHT22;5281;48.878;9.394;2023-07-29T06:02:22;21.50;99.90
10468;DHT22;5281;48.878;9.394;2023-07-29T06:04:49;21.80;99.90
10468;DHT22;5281;48.878;9.394;2023-07-29T06:07:16;22.30;99.90
10468;DHT22;5281;48.878;9.394;2023-07-29T06:09:43;22.60;99.90
10468;DHT22;5281;48.878;9.394;2023-07-29T06:12:10;23.30;99.90
10468;DHT22;5281;48.878;9.394;2023-07-29T06:14:38;24.30;99.90
10468;DHT22;5281;48.878;9.394;2023-07-29T06:17:05;24.60;99.90
10468;DHT22;5281;48.878;9.394;2023-07-29T06:19:32;24.80;99.90
10468;DHT22;5281;48.878;9.394;2023-07-29T06:21:59;25.00;99.90
10468;DHT22;5281;48.878;9.394;2023-07-29T06:24:26;25.20;99.90
10468;DHT22;5281;48.878;9.394;2023-07-29T06:26:53;25.30;99.90
10468;DHT22;5281;48.878;9.394;2023-07-29T06:29:20;25.70;99.90
10468;DHT22;5281;48.878;9.394;2023-07-29T06:31:48;26.00;99.90
10468;DHT22;5281;48.878;9.394;2023-07-29T06:34:16;25.90;99.90
10468;DHT22;5281;48.878;9.394;2023-07-29T06:36:43;25.70;99.90
10468;DHT22;5281;48.878;9.394;2023-07-29T06:39:10;25.60;99.90
10468;DHT22;5281;48.878;9.394;2023-07-29T06:41:36;25.50;99.90
10468;DHT22;5281;48.878;9.394;2023-07-29T06:44:04;25.40;99.90
10468;DHT22;5281;48.878;9.394;2023-07-29T06:46:30;25.20;99.90
10468;DHT22;5281;48.878;9.394;2023-07-29T06:48:58;25.00;99.90
10468;DHT22;5281;48.878;9.394;2023-07-29T06:51:25;24.80;99.90
10468;DHT22;5281;48.878;9.394;2023-07-29T06:53:52;24.80;99.90
10468;DHT22;5281;48.878;9.394;2023-07-29T06:56:18;24.70;99.90
10468;DHT22;5281;48.878;9.394;2023-07-29T06:58:45;24.50;99.90
10468;DHT22;5281;48.878;9.394;2023-07-29T07:01:12;24.40;99.90
10468;DHT22;5281;48.878;9.394;2023-07-29T07:03:38;24.20;99.90
10468;DHT22;5281;48.878;9.394;2023-07-29T07:06:07;24.10;99.90
10468;DHT22;5281;48.878;9.394;2023-07-29T07:08:34;24.00;99.90
10468;DHT22;5281;48.878;9.394;2023-07-29T07:11:00;23.80;99.90
10468;DHT22;5281;48.878;9.394;2023-07-29T07:13:27;23.60;99.90
10468;DHT22;5281;48.878;9.394;2023-07-29T07:15:54;23.50;99.90
10468;DHT22;5281;48.878;9.394;2023-07-29T07:18:21;23.30;99.90
10468;DHT22;5281;48.878;9.394;2023-07-29T07:20:48;23.10;99.90
10468;DHT22;5281;48.878;9.394;2023-07-29T07:23:17;22.90;99.90
10468;DHT22;5281;48.878;9.394;2023-07-29T07:25:44;22.80;99.90
10468;DHT22;5281;48.878;9.394;2023-07-29T07:28:10;22.70;99.90
10468;DHT22;5281;48.878;9.394;2023-07-29T07:30:39;22.60;99.90
10468;DHT22;5281;48.878;9.394;2023-07-29T07:33:07;22.40;99.90
10468;DHT22;5281;48.878;9.394;2023-07-29T07:35:33;22.20;99.90
10468;DHT22;5281;48.878;9.394;2023-07-29T07:38:00;22.00;99.90
10468;DHT22;5281;48.878;9.394;2023-07-29T07:40:30;21.90;99.90
10468;DHT22;5281;48.878;9.394;2023-07-29T07:42:57;21.80;99.90
10468;DHT22;5281;48.878;9.394;2023-07-29T07:45:24;21.70;99.90
10468;DHT22;5281;48.878;9.394;2023-07-29T07:47:51;21.70;99.90
10468;DHT22;5281;48.878;9.394;2023-07-29T07:50:18;21.80;99.90
10468;DHT22;5281;48.878;9.394;2023-07-29T07:52:45;22.00;99.90
10468;DHT22;5281;48.878;9.394;2023-07-29T07:55:11;22.20;99.90
10468;DHT22;5281;48.878;9.394;2023-07-29T07:57:40;22.20;99.90
10468;DHT22;5281;48.878;9.394;2023-07-29T08:00:07;22.20;99.90
10468;DHT22;5281;48.878;9.394;2023-07-29T08:02:34;22.20;99.90
10468;DHT22;5281;48.878;9.394;2023-07-29T08:05:01;22.20;99.90
10468;DHT22;5281;48.878;9.394;2023-07-29T08:07:28;22.30;99.90
10468;DHT22;5281;48.878;9.394;2023-07-29T08:09:54;22.50;99.90
10468;DHT22;5281;48.878;9.394;2023-07-29T08:12:21;22.70;99.90
10468;DHT22;5281;48.878;9.394;2023-07-29T08:14:49;22.80;99.90
10468;DHT22;5281;48.878;9.394;2023-07-29T08:17:16;23.10;99.90
10468;DHT22;5281;48.878;9.394;2023-07-29T08:19:44;23.30;99.90
10468;DHT22;5281;48.878;9.394;2023-07-29T08:22:10;23.50;99.90
10468;DHT22;5281;48.878;9.394;2023-07-29T08:24:37;23.60;99.90
10468;DHT22;5281;48.878;9.394;2023-07-29T08:27:04;23.60;99.90
10468;DHT22;5281;48.878;9.394;2023-07-29T08:29:31;23.70;99.90
10468;DHT22;5281;48.878;9.394;2023-07-29T08:31:59;23.80;99.90
10468;DHT22;5281;48.878;9.394;2023-07-29T08:34:26;24.50;99.90
10468;DHT22;5281;48.878;9.394;2023-07-29T08:36:53;25.60;99.90
10468;DHT22;5281;48.878;9.394;2023-07-29T08:39:19;26.20;99.90
10468;DHT22;5281;48.878;9.394;2023-07-29T08:41:51;26.50;99.90
10468;DHT22;5281;48.878;9.394;2023-07-29T08:44:21;26.60;99.90
10468;DHT22;5281;48.878;9.394;2023-07-29T08:46:49;26.70;99.90
10468;DHT22;5281;48.878;9.394;2023-07-29T08:49:18;26.80;99.90
10468;DHT22;5281;48.878;9.394;2023-07-29T08:51:46;26.80;99.90
10468;DHT22;5281;48.878;9.394;2023-07-29T08:54:13;26.70;99.90
10468;DHT22;5281;48.878;9.394;2023-07-29T08:56:41;26.60;99.90
10468;DHT22;5281;48.878;9.394;2023-07-29T08:59:08;26.60;99.90
10468;DHT22;5281;48.878;9.394;2023-07-29T09:01:36;26.70;99.90
10468;DHT22;5281;48.878;9.394;2023-07-29T09:04:03;26.80;99.90
10468;DHT22;5281;48.878;9.394;2023-07-29T09:06:32;27.00;99.90
10468;DHT22;5281;48.878;9.394;2023-07-29T09:08:59;27.10;99.90
10468;DHT22;5281;48.878;9.394;2023-07-29T09:11:27;27.30;99.90
10468;DHT22;5281;48.878;9.394;2023-07-29T09:13:54;27.40;99.90
10468;DHT22;5281;48.878;9.394;2023-07-29T09:16:21;27.70;99.90
10468;DHT22;5281;48.878;9.394;2023-07-29T09:18:48;27.70;99.90
10468;DHT22;5281;48.878;9.394;2023-07-29T09:21:16;27.80;99.90
10468;DHT22;5281;48.878;9.394;2023-07-29T09:23:45;27.80;99.90
10468;DHT22;5281;48.878;9.394;2023-07-29T09:26:11;28.10;99.90
10468;DHT22;5281;48.878;9.394;2023-07-29T09:28:39;28.40;99.90
10468;DHT22;5281;48.878;9.394;2023-07-29T09:31:06;28.60;99.90
10468;DHT22;5281;48.878;9.394;2023-07-29T09:33:34;28.90;99.90
10468;DHT22;5281;48.878;9.394;2023-07-29T09:36:03;28.90;99.90
10468;DHT22;5281;48.878;9.394;2023-07-29T09:38:29;28.80;99.90
10468;DHT22;5281;48.878;9.394;2023-07-29T09:40:57;28.70;99.90
10468;DHT22;5281;48.878;9.394;2023-07-29T09:43:30;28.80;99.90
10468;DHT22;5281;48.878;9.394;2023-07-29T09:45:59;28.90;99.90
10468;DHT22;5281;48.878;9.394;2023-07-29T09:48:27;29.00;99.90
10468;DHT22;5281;48.878;9.394;2023-07-29T09:50:54;29.20;99.90
10468;DHT22;5281;48.878;9.394;2023-07-29T09:53:21;29.50;99.90
10468;DHT22;5281;48.878;9.394;2023-07-29T09:55:49;29.80;99.90
10468;DHT22;5281;48.878;9.394;2023-07-29T09:58:21;30.10;99.90
10468;DHT22;5281;48.878;9.394;2023-07-29T10:00:52;30.40;99.90
10468;DHT22;5281;48.878;9.394;2023-07-29T10:03:20;30.20;99.90
10468;DHT22;5281;48.878;9.394;2023-07-29T10:05:47;29.90;99.90
10468;DHT22;5281;48.878;9.394;2023-07-29T10:08:14;29.60;99.90
10468;DHT22;5281;48.878;9.394;2023-07-29T10:10:42;29.40;99.90
10468;DHT22;5281;48.878;9.394;2023-07-29T10:13:09;29.60;99.90
10468;DHT22;5281;48.878;9.394;2023-07-29T10:15:37;29.90;99.90
10468;DHT22;5281;48.878;9.394;2023-07-29T10:18:04;29.80;99.90
10468;DHT22;5281;48.878;9.394;2023-07-29T10:20:32;28.70;99.90
10468;DHT22;5281;48.878;9.394;2023-07-29T10:23:00;27.10;99.90
10468;DHT22;5281;48.878;9.394;2023-07-29T10:25:36;25.80;99.90
10468;DHT22;5281;48.878;9.394;2023-07-29T10:28:05;24.80;99.90
10468;DHT22;5281;48.878;9.394;2023-07-29T10:30:32;24.00;99.90
10468;DHT22;5281;48.878;9.394;2023-07-29T10:33:02;23.60;99.90
10468;DHT22;5281;48.878;9.394;2023-07-29T10:35:29;23.20;99.90
10468;DHT22;5281;48.878;9.394;2023-07-29T10:37:56;23.20;99.90
10468;DHT22;5281;48.878;9.394;2023-07-29T10:40:23;23.30;99.90
10468;DHT22;5281;48.878;9.394;2023-07-29T10:43:00;23.70;99.90
10468;DHT22;5281;48.878;9.394;2023-07-29T10:45:36;24.10;99.90
10468;DHT22;5281;48.878;9.394;2023-07-29T10:48:08;24.50;99.90
10468;DHT22;5281;48.878;9.394;2023-07-29T10:50:36;24.70;99.90
10468;DHT22;5281;48.878;9.394;2023-07-29T10:53:03;25.00;99.90
10468;DHT22;5281;48.878;9.394;2023-07-29T10:55:32;25.10;99.90
10468;DHT22;5281;48.878;9.394;2023-07-29T10:58:12;25.20;99.90
10468;DHT22;5281;48.878;9.394;2023-07-29T11:00:41;25.50;99.90
10468;DHT22;5281;48.878;9.394;2023-07-29T11:03:12;25.60;99.90
10468;DHT22;5281;48.878;9.394;2023-07-29T11:05:45;25.40;99.90
10468;DHT22;5281;48.878;9.394;2023-07-29T11:08:19;25.30;99.90
10468;DHT22;5281;48.878;9.394;2023-07-29T11:10:58;25.40;99.90
10468;DHT22;5281;48.878;9.394;2023-07-29T11:13:26;25.70;99.90
10468;DHT22;5281;48.878;9.394;2023-07-29T11:15:54;25.90;99.90
10468;DHT22;5281;48.878;9.394;2023-07-29T11:18:26;26.30;99.90
10468;DHT22;5281;48.878;9.394;2023-07-29T11:20:54;26.60;99.90
10468;DHT22;5281;48.878;9.394;2023-07-29T11:23:21;27.20;99.90
10468;DHT22;5281;48.878;9.394;2023-07-29T11:25:54;27.50;99.90
10468;DHT22;5281;48.878;9.394;2023-07-29T11:28:20;27.70;99.90
10468;DHT22;5281;48.878;9.394;2023-07-29T11:30:49;27.70;99.90
10468;DHT22;5281;48.878;9.394;2023-07-29T11:33:18;28.00;99.90
10468;DHT22;5281;48.878;9.394;2023-07-29T11:35:47;28.50;99.90
10468;DHT22;5281;48.878;9.394;2023-07-29T11:38:18;28.90;99.90
10468;DHT22;5281;48.878;9.394;2023-07-29T11:40:54;29.20;99.90
10468;DHT22;5281;48.878;9.394;2023-07-29T11:43:21;29.40;99.90
10468;DHT22;5281;48.878;9.394;2023-07-29T11:45:48;29.40;99.90
10468;DHT22;5281;48.878;9.394;2023-07-29T11:48:15;29.30;99.90
10468;DHT22;5281;48.878;9.394;2023-07-29T11:50:42;29.10;99.90
10468;DHT22;5281;48.878;9.394;2023-07-29T11:53:11;29.20;99.90
10468;DHT22;5281;48.878;9.394;2023-07-29T11:55:38;29.50;99.90
10468;DHT22;5281;48.878;9.394;2023-07-29T11:58:05;29.60;99.90
10468;DHT22;5281;48.878;9.394;2023-07-29T12:00:31;29.40;99.90
10468;DHT22;5281;48.878;9.394;2023-07-29T12:02:58;29.20;99.90
10468;DHT22;5281;48.878;9.394;2023-07-29T12:05:26;29.00;99.90
10468;DHT22;5281;48.878;9.394;2023-07-29T12:07:52;28.90;99.90
10468;DHT22;5281;48.878;9.394;2023-07-29T12:10:21;28.70;99.90
10468;DHT22;5281;48.878;9.394;2023-07-29T12:12:49;28.70;99.90
10468;DHT22;5281;48.878;9.394;2023-07-29T12:15:23;28.60;99.90
10468;DHT22;5281;48.878;9.394;2023-07-29T12:17:53;28.60;99.90
10468;DHT22;5281;48.878;9.394;2023-07-29T12:20:20;28.40;99.90
10468;DHT22;5281;48.878;9.394;2023-07-29T12:22:52;28.30;99.90
10468;DHT22;5281;48.878;9.394;2023-07-29T12:25:20;28.50;99.90
10468;DHT22;5281;48.878;9.394;2023-07-29T12:27:47;28.30;99.90
10468;DHT22;5281;48.878;9.394;2023-07-29T12:30:14;28.40;99.90
10468;DHT22;5281;48.878;9.394;2023-07-29T12:32:44;28.50;99.90
10468;DHT22;5281;48.878;9.394;2023-07-29T12:35:12;28.70;99.90
10468;DHT22;5281;48.878;9.394;2023-07-29T12:37:38;28.90;99.90
10468;DHT22;5281;48.878;9.394;2023-07-29T12:40:19;29.10;99.90
10468;DHT22;5281;48.878;9.394;2023-07-29T12:42:48;29.10;99.90
10468;DHT22;5281;48.878;9.394;2023-07-29T12:45:15;29.30;99.90
10468;DHT22;5281;48.878;9.394;2023-07-29T12:47:42;29.20;99.90
10468;DHT22;5281;48.878;9.394;2023-07-29T12:50:09;29.40;99.90
10468;DHT22;5281;48.878;9.394;2023-07-29T12:52:36;29.70;99.90
10468;DHT22;5281;48.878;9.394;2023-07-29T12:55:03;29.80;99.90
10468;DHT22;5281;48.878;9.394;2023-07-29T12:57:29;30.00;99.90
10468;DHT22;5281;48.878;9.394;2023-07-29T12:59:57;30.30;99.90
10468;DHT22;5281;48.878;9.394;2023-07-29T13:02:24;30.30;99.90
10468;DHT22;5281;48.878;9.394;2023-07-29T13:04:51;30.10;99.90
10468;DHT22;5281;48.878;9.394;2023-07-29T13:07:17;30.00;99.90
10468;DHT22;5281;48.878;9.394;2023-07-29T13:09:44;30.10;98.90
10468;DHT22;5281;48.878;9.394;2023-07-29T13:12:11;30.20;99.20
10468;DHT22;5281;48.878;9.394;2023-07-29T13:14:38;30.10;97.40
10468;DHT22;5281;48.878;9.394;2023-07-29T13:17:06;30.00;98.20
10468;DHT22;5281;48.878;9.394;2023-07-29T13:19:33;29.90;98.50
10468;DHT22;5281;48.878;9.394;2023-07-29T13:22:00;29.80;98.40
10468;DHT22;5281;48.878;9.394;2023-07-29T13:24:27;29.90;98.60
10468;DHT22;5281;48.878;9.394;2023-07-29T13:26:54;29.90;97.90
10468;DHT22;5281;48.878;9.394;2023-07-29T13:29:21;30.10;98.10
10468;DHT22;5281;48.878;9.394;2023-07-29T13:31:47;30.20;98.30
10468;DHT22;5281;48.878;9.394;2023-07-29T13:34:15;30.40;96.70
10468;DHT22;5281;48.878;9.394;2023-07-29T13:36:42;30.40;96.90
10468;DHT22;5281;48.878;9.394;2023-07-29T13:39:09;30.40;97.00
10468;DHT22;5281;48.878;9.394;2023-07-29T13:41:35;30.40;96.90
10468;DHT22;5281;48.878;9.394;2023-07-29T13:44:02;30.20;96.70
10468;DHT22;5281;48.878;9.394;2023-07-29T13:46:29;30.20;97.10
10468;DHT22;5281;48.878;9.394;2023-07-29T13:48:56;30.20;97.40
10468;DHT22;5281;48.878;9.394;2023-07-29T13:51:24;30.20;97.20
10468;DHT22;5281;48.878;9.394;2023-07-29T13:53:50;30.00;97.10
10468;DHT22;5281;48.878;9.394;2023-07-29T13:56:17;29.90;97.40
10468;DHT22;5281;48.878;9.394;2023-07-29T13:58:44;29.90;97.70
10468;DHT22;5281;48.878;9.394;2023-07-29T14:01:11;30.10;98.00
10468;DHT22;5281;48.878;9.394;2023-07-29T14:03:37;30.30;97.50
10468;DHT22;5281;48.878;9.394;2023-07-29T14:06:04;30.60;96.40
10468;DHT22;5281;48.878;9.394;2023-07-29T14:08:32;30.80;95.80
10468;DHT22;5281;48.878;9.394;2023-07-29T14:11:00;30.90;96.10
10468;DHT22;5281;48.878;9.394;2023-07-29T14:13:27;30.90;94.70
10468;DHT22;5281;48.878;9.394;2023-07-29T14:15:54;31.00;95.30
10468;DHT22;5281;48.878;9.394;2023-07-29T14:18:20;31.10;95.10
10468;DHT22;5281;48.878;9.394;2023-07-29T14:20:47;31.00;94.80
10468;DHT22;5281;48.878;9.394;2023-07-29T14:23:14;30.90;94.80
10468;DHT22;5281;48.878;9.394;2023-07-29T14:25:42;30.80;94.90
10468;DHT22;5281;48.878;9.394;2023-07-29T14:28:09;30.80;93.90
10468;DHT22;5281;48.878;9.394;2023-07-29T14:30:36;30.60;93.70
10468;DHT22;5281;48.878;9.394;2023-07-29T14:33:03;30.30;93.60
10468;DHT22;5281;48.878;9.394;2023-07-29T14:35:30;30.10;94.10
10468;DHT22;5281;48.878;9.394;2023-07-29T14:37:56;29.80;94.80
10468;DHT22;5281;48.878;9.394;2023-07-29T14:40:23;29.80;95.80
10468;DHT22;5281;48.878;9.394;2023-07-29T14:42:51;29.70;96.00
10468;DHT22;5281;48.878;9.394;2023-07-29T14:45:18;29.70;96.20
10468;DHT22;5281;48.878;9.394;2023-07-29T14:47:45;29.70;96.80
10468;DHT22;5281;48.878;9.394;2023-07-29T14:50:11;29.70;97.20
10468;DHT22;5281;48.878;9.394;2023-07-29T14:52:38;29.60;96.80
10468;DHT22;5281;48.878;9.394;2023-07-29T14:55:06;29.70;96.70
10468;DHT22;5281;48.878;9.394;2023-07-29T14:57:32;29.60;96.20
10468;DHT22;5281;48.878;9.394;2023-07-29T15:00:00;29.60;96.50
10468;DHT22;5281;48.878;9.394;2023-07-29T15:02:29;29.60;96.80
10468;DHT22;5281;48.878;9.394;2023-07-29T15:04:55;29.60;97.00
10468;DHT22;5281;48.878;9.394;2023-07-29T15:07:22;29.50;97.60
10468;DHT22;5281;48.878;9.394;2023-07-29T15:09:49;29.40;97.60
10468;DHT22;5281;48.878;9.394;2023-07-29T15:12:15;29.40;97.30
10468;DHT22;5281;48.878;9.394;2023-07-29T15:14:42;29.40;97.10
10468;DHT22;5281;48.878;9.394;2023-07-29T15:17:10;29.30;97.10
10468;DHT22;5281;48.878;9.394;2023-07-29T15:19:37;29.30;97.10
10468;DHT22;5281;48.878;9.394;2023-07-29T15:22:04;29.10;97.30
10468;DHT22;5281;48.878;9.394;2023-07-29T15:24:31;29.10;98.30
10468;DHT22;5281;48.878;9.394;2023-07-29T15:26:58;29.20;97.70
10468;DHT22;5281;48.878;9.394;2023-07-29T15:29:24;29.30;97.30
10468;DHT22;5281;48.878;9.394;2023-07-29T15:31:51;29.40;97.50
10468;DHT22;5281;48.878;9.394;2023-07-29T15:34:19;29.30;97.10
10468;DHT22;5281;48.878;9.394;2023-07-29T15:36:48;29.20;96.70
10468;DHT22;5281;48.878;9.394;2023-07-29T15:39:14;29.20;97.10
10468;DHT22;5281;48.878;9.394;2023-07-29T15:41:41;29.20;97.70
10468;DHT22;5281;48.878;9.394;2023-07-29T15:44:08;29.20;97.40
10468;DHT22;5281;48.878;9.394;2023-07-29T15:46:34;29.00;97.30